Time;durP1;ratioP1;P1;durP2;ratioP2;P2;SDS_P1;SDS_P2;PMS_P1;PMS_P2;Temp;Humidity;BMP_temperature;BMP_pressure;BME280_temperature;BME280_humidity;BME280_pressure;Samples;Min_cycle;Max_cycle;Signal;HPM_P1;HPM_P2
2021/05/10 00:00:09;;;;;;;5.93;5.38;;;16.30;96.10;;;;;;5093262;28;20596;-46
2021/05/10 00:02:37;;;;;;;10.40;9.38;;;16.20;96.20;;;;;;5093258;28;20293;-47
2021/05/10 00:05:04;;;;;;;5.05;4.65;;;16.20;96.40;;;;;;5093028;28;20215;-47
2021/05/10 00:07:32;;;;;;;11.45;10.27;;;16.10;96.70;;;;;;5092838;28;20213;-46
2021/05/10 00:09:59;;;;;;;4.95;4.55;;;16.10;96.90;;;;;;5092900;28;20374;-47
2021/05/10 00:12:26;;;;;;;4.10;3.70;;;16.00;97.00;;;;;;5092740;28;20260;-46
2021/05/10 00:14:54;;;;;;;6.68;5.97;;;16.00;97.20;;;;;;5092466;28;20210;-47
2021/05/10 00:17:21;;;;;;;10.13;9.13;;;15.90;97.30;;;;;;5092691;28;20293;-45
2021/05/10 00:19:48;;;;;;;7.97;6.65;;;15.90;97.50;;;;;;5092829;28;20368;-48
2021/05/10 00:22:15;;;;;;;17.95;15.98;;;15.80;97.60;;;;;;5092810;28;20716;-49
2021/05/10 00:24:48;;;;;;;10.32;7.45;;;15.80;97.70;;;;;;5092341;28;20380;-47
2021/05/10 00:27:15;;;;;;;4.80;4.25;;;15.80;97.80;;;;;;5092487;28;20215;-46
2021/05/10 00:29:42;;;;;;;14.70;12.55;;;15.80;97.80;;;;;;5092768;28;20234;-46
2021/05/10 00:32:09;;;;;;;13.15;11.52;;;15.80;97.90;;;;;;5092576;28;20279;-45
2021/05/10 00:34:36;;;;;;;10.55;7.70;;;15.80;98.00;;;;;;5092566;28;20215;-44
2021/05/10 00:37:02;;;;;;;5.85;5.35;;;15.80;98.00;;;;;;5092532;28;20352;-47
2021/05/10 00:39:29;;;;;;;4.47;3.58;;;15.80;98.00;;;;;;5092177;28;20528;-51
2021/05/10 00:41:58;;;;;;;9.30;8.25;;;15.80;98.00;;;;;;5092277;28;20264;-46
2021/05/10 00:44:25;;;;;;;6.95;6.22;;;15.80;98.10;;;;;;5092605;28;20203;-45
2021/05/10 00:46:53;;;;;;;9.90;8.90;;;15.80;98.20;;;;;;5092635;28;20302;-47
2021/05/10 00:49:20;;;;;;;26.83;24.08;;;15.80;98.30;;;;;;5092412;28;20210;-48
2021/05/10 00:51:47;;;;;;;4.38;3.78;;;15.80;98.30;;;;;;5092223;28;20293;-49
2021/05/10 00:54:14;;;;;;;9.43;6.47;;;15.80;98.40;;;;;;5092261;28;20252;-48
2021/05/10 00:56:42;;;;;;;3.08;2.85;;;15.70;98.50;;;;;;5092129;28;20210;-44
2021/05/10 00:59:10;;;;;;;2.80;2.60;;;15.80;98.60;;;;;;5092311;28;20260;-45
2021/05/10 01:01:37;;;;;;;5.68;3.28;;;15.80;98.70;;;;;;5092017;28;20776;-46
2021/05/10 01:04:04;;;;;;;3.10;2.90;;;15.70;98.70;;;;;;5092184;28;20305;-49
2021/05/10 01:06:32;;;;;;;3.90;2.50;;;15.80;99.10;;;;;;5092051;28;20581;-51
2021/05/10 01:08:59;;;;;;;6.18;3.15;;;15.70;98.80;;;;;;5092142;28;20210;-47
2021/05/10 01:11:25;;;;;;;2.75;2.55;;;15.70;98.80;;;;;;5092238;28;20204;-47
2021/05/10 01:13:52;;;;;;;2.50;2.30;;;15.70;98.90;;;;;;5091999;28;20297;-45
2021/05/10 01:16:20;;;;;;;2.95;2.53;;;15.70;99.00;;;;;;5092125;28;20609;-47
2021/05/10 01:18:48;;;;;;;3.05;2.78;;;15.70;99.10;;;;;;5092032;28;20246;-44
2021/05/10 01:21:17;;;;;;;3.13;2.90;;;15.60;99.20;;;;;;5091789;28;20218;-44
2021/05/10 01:23:46;;;;;;;3.33;3.03;;;15.70;99.30;;;;;;5091670;28;20242;-48
2021/05/10 01:26:13;;;;;;;3.33;3.03;;;15.60;99.30;;;;;;5091938;28;20209;-45
2021/05/10 01:28:42;;;;;;;3.38;2.60;;;15.60;99.40;;;;;;5091788;28;20368;-49
2021/05/10 01:31:09;;;;;;;3.85;3.10;;;15.50;99.50;;;;;;5091848;28;20669;-46
2021/05/10 01:33:36;;;;;;;2.95;2.75;;;15.50;99.60;;;;;;5091826;28;20626;-47
2021/05/10 01:36:03;;;;;;;5.55;3.08;;;15.50;99.80;;;;;;5091705;28;20293;-44
2021/05/10 01:38:30;;;;;;;3.30;2.85;;;15.40;99.90;;;;;;5091694;28;20209;-45
2021/05/10 01:40:58;;;;;;;3.47;2.92;;;15.40;99.90;;;;;;5091593;28;20250;-47
2021/05/10 01:43:25;;;;;;;5.45;2.67;;;15.40;99.80;;;;;;5091772;28;20203;-46
2021/05/10 01:45:52;;;;;;;2.88;2.67;;;15.40;99.80;;;;;;5091808;28;20209;-45
2021/05/10 01:48:19;;;;;;;3.17;2.88;;;15.40;99.90;;;;;;5092551;28;20284;-48
2021/05/10 01:50:48;;;;;;;4.53;2.67;;;15.40;99.90;;;;;;5095304;28;20198;-48
2021/05/10 01:53:16;;;;;;;3.47;3.17;;;15.40;99.90;;;;;;5095706;28;20234;-44
2021/05/10 01:55:43;;;;;;;3.47;2.75;;;15.40;99.90;;;;;;5095435;28;20223;-46
2021/05/10 01:58:12;;;;;;;4.18;3.00;;;15.40;99.90;;;;;;5095390;28;20230;-45
2021/05/10 02:00:40;;;;;;;3.35;3.05;;;15.40;99.90;;;;;;5095331;28;20265;-44
2021/05/10 02:03:09;;;;;;;3.08;2.88;;;15.40;99.90;;;;;;5095069;28;20211;-46
2021/05/10 02:05:37;;;;;;;3.92;3.53;;;15.40;99.90;;;;;;5095172;28;20749;-44
2021/05/10 02:08:06;;;;;;;4.03;3.05;;;15.40;99.90;;;;;;5095418;28;20293;-46
2021/05/10 02:10:35;;;;;;;6.15;2.97;;;15.40;99.90;;;;;;5095285;28;20282;-44
2021/05/10 02:13:05;;;;;;;3.22;2.92;;;15.40;99.90;;;;;;5095221;28;20238;-43
2021/05/10 02:15:34;;;;;;;3.40;3.08;;;15.50;99.90;;;;;;5095129;28;20277;-47
2021/05/10 02:18:02;;;;;;;3.33;3.03;;;15.50;99.80;;;;;;5095237;28;20612;-50
2021/05/10 02:20:29;;;;;;;3.33;3.00;;;15.50;99.70;;;;;;5094895;28;20310;-44
2021/05/10 02:22:58;;;;;;;6.38;3.17;;;15.50;99.60;;;;;;5094907;28;20249;-47
2021/05/10 02:25:28;;;;;;;3.72;3.42;;;15.50;99.50;;;;;;5094711;28;20325;-44
2021/05/10 02:27:55;;;;;;;2.92;2.50;;;15.50;99.50;;;;;;5094911;28;20349;-45
2021/05/10 02:30:24;;;;;;;3.00;2.78;;;15.50;99.50;;;;;;5094668;28;20596;-45
2021/05/10 02:32:53;;;;;;;4.38;2.38;;;15.50;99.50;;;;;;5094809;28;20649;-48
2021/05/10 02:35:22;;;;;;;3.35;2.90;;;15.50;99.40;;;;;;5094708;28;20210;-46
2021/05/10 02:37:50;;;;;;;2.70;2.50;;;15.40;99.30;;;;;;5094688;28;20282;-45
2021/05/10 02:40:17;;;;;;;3.22;2.72;;;15.40;99.20;;;;;;5094529;28;20313;-47
2021/05/10 02:42:45;;;;;;;3.53;2.72;;;15.50;99.00;;;;;;5094510;28;20297;-46
2021/05/10 02:45:14;;;;;;;3.35;3.05;;;15.50;98.70;;;;;;5094749;28;20306;-42
2021/05/10 02:47:41;;;;;;;5.05;3.30;;;15.50;98.60;;;;;;5094417;28;20213;-46
2021/05/10 02:50:12;;;;;;;4.15;3.75;;;15.40;98.60;;;;;;5094576;28;20199;-45
2021/05/10 02:52:39;;;;;;;2.92;2.63;;;15.40;98.70;;;;;;5094327;28;20246;-48
2021/05/10 02:55:08;;;;;;;3.70;2.65;;;15.40;98.70;;;;;;5094141;28;20461;-47
2021/05/10 02:57:35;;;;;;;4.07;2.60;;;15.30;98.70;;;;;;5094304;28;20207;-48
2021/05/10 03:00:04;;;;;;;4.00;3.70;;;15.30;98.80;;;;;;5093074;28;20321;-46
2021/05/10 03:02:31;;;;;;;2.80;2.60;;;15.30;98.80;;;;;;5094236;28;20203;-45
2021/05/10 03:05:00;;;;;;;4.70;2.85;;;15.30;98.80;;;;;;5094099;28;20218;-47
2021/05/10 03:07:28;;;;;;;5.05;2.88;;;15.20;98.70;;;;;;5093959;28;20212;-48
2021/05/10 03:09:55;;;;;;;2.90;2.70;;;15.20;98.80;;;;;;5093897;28;20295;-49
2021/05/10 03:12:22;;;;;;;4.05;2.88;;;15.10;99.00;;;;;;5094100;28;20293;-47
2021/05/10 03:14:50;;;;;;;4.47;2.72;;;15.00;99.30;;;;;;5093732;28;20691;-45
2021/05/10 03:17:17;;;;;;;3.88;2.95;;;14.90;99.10;;;;;;5094122;28;20313;-45
2021/05/10 03:19:44;;;;;;;4.93;3.28;;;14.90;99.30;;;;;;5093969;28;20313;-47
2021/05/10 03:22:10;;;;;;;2.70;2.50;;;14.80;99.40;;;;;;5093803;28;20237;-44
2021/05/10 03:24:39;;;;;;;5.40;3.30;;;14.80;99.50;;;;;;5093859;28;20262;-48
2021/05/10 03:27:06;;;;;;;3.05;2.75;;;14.80;99.50;;;;;;5093695;28;20229;-48
2021/05/10 03:29:33;;;;;;;3.03;2.83;;;14.80;99.60;;;;;;5093509;28;20253;-46
2021/05/10 03:32:00;;;;;;;5.07;2.90;;;14.70;99.60;;;;;;5093529;28;20202;-47
2021/05/10 03:34:27;;;;;;;7.30;2.97;;;14.60;99.70;;;;;;5093610;28;20207;-46
2021/05/10 03:36:54;;;;;;;3.53;2.53;;;14.60;99.80;;;;;;5093409;28;20212;-48
2021/05/10 03:39:21;;;;;;;4.30;2.83;;;14.50;99.80;;;;;;5093786;28;20298;-45
2021/05/10 03:41:49;;;;;;;4.90;4.13;;;14.50;99.80;;;;;;5093412;28;20222;-50
2021/05/10 03:44:16;;;;;;;3.97;3.58;;;14.50;99.80;;;;;;5093377;28;20298;-42
2021/05/10 03:46:43;;;;;;;2.60;2.40;;;14.50;99.80;;;;;;5093440;28;20207;-46
2021/05/10 03:49:10;;;;;;;4.95;2.78;;;14.60;99.90;;;;;;5093133;28;20297;-48
2021/05/10 03:51:37;;;;;;;3.65;2.78;;;14.50;99.80;;;;;;5092881;28;20211;-45
2021/05/10 03:54:04;;;;;;;4.95;3.15;;;14.60;99.80;;;;;;5093205;28;20206;-44
2021/05/10 03:56:31;;;;;;;3.80;3.00;;;14.60;99.80;;;;;;5092912;28;20736;-45
2021/05/10 03:58:59;;;;;;;4.75;3.20;;;14.60;99.80;;;;;;5092951;28;20274;-49
2021/05/10 04:01:26;;;;;;;3.03;2.72;;;14.70;99.90;;;;;;5092874;28;20276;-47
2021/05/10 04:04:00;;;;;;;3.50;3.05;;;14.70;99.80;;;;;;5092592;28;20217;-49
2021/05/10 04:06:41;;;;;;;3.92;2.67;;;14.80;99.70;;;;;;5092447;28;20735;-47
2021/05/10 04:09:26;;;;;;;5.15;3.05;;;14.80;99.60;;;;;;5092872;28;20217;-48
2021/05/10 04:14:39;;;;;;;3.08;2.85;;;14.90;99.50;;;;;;5092622;28;20578;-43
2021/05/10 04:17:06;;;;;;;6.00;3.90;;;15.00;99.40;;;;;;5092582;28;20256;-42
2021/05/10 04:19:33;;;;;;;4.22;3.78;;;15.00;99.40;;;;;;5092460;28;20211;-42
2021/05/10 04:22:00;;;;;;;3.10;2.80;;;15.00;99.30;;;;;;5092460;28;20310;-42
2021/05/10 04:24:27;;;;;;;5.13;3.15;;;15.00;99.30;;;;;;5092469;28;20709;-43
2021/05/10 04:26:54;;;;;;;5.55;3.00;;;15.00;99.30;;;;;;5092186;28;20689;-42
2021/05/10 04:29:21;;;;;;;4.32;3.92;;;15.00;99.30;;;;;;5092359;28;20298;-44
2021/05/10 04:31:48;;;;;;;5.18;3.65;;;15.00;99.40;;;;;;5092659;28;20235;-45
2021/05/10 04:34:15;;;;;;;4.32;3.78;;;15.00;99.60;;;;;;5092624;28;20207;-45
2021/05/10 04:36:42;;;;;;;5.60;4.03;;;15.00;99.60;;;;;;5092451;28;20206;-47
2021/05/10 04:39:09;;;;;;;3.80;3.47;;;14.90;99.70;;;;;;5092546;28;20238;-44
2021/05/10 04:41:36;;;;;;;5.00;4.47;;;14.90;99.90;;;;;;5092118;28;20226;-44
2021/05/10 04:44:04;;;;;;;4.25;3.58;;;14.90;99.90;;;;;;5092496;28;20313;-44
2021/05/10 04:46:31;;;;;;;5.57;4.68;;;14.90;99.90;;;;;;5092346;28;20207;-46
2021/05/10 04:48:59;;;;;;;5.18;3.67;;;14.90;99.90;;;;;;5092701;28;20214;-48
2021/05/10 04:51:26;;;;;;;5.55;4.55;;;15.00;99.90;;;;;;5092101;28;20584;-48
2021/05/10 04:53:52;;;;;;;7.28;4.45;;;15.00;99.90;;;;;;5092054;28;20293;-49
2021/05/10 04:56:19;;;;;;;5.72;4.28;;;15.10;99.90;;;;;;5092103;28;20285;-47
2021/05/10 04:58:46;;;;;;;7.85;4.43;;;15.20;99.80;;;;;;5092338;28;20611;-46
2021/05/10 05:01:13;;;;;;;6.57;4.70;;;15.30;99.80;;;;;;5092170;28;20229;-47
2021/05/10 05:03:40;;;;;;;6.80;3.75;;;15.30;99.70;;;;;;5092240;28;20211;-48
2021/05/10 05:06:08;;;;;;;6.85;4.20;;;15.50;99.60;;;;;;5092177;28;20302;-47
2021/05/10 05:08:35;;;;;;;6.82;3.97;;;15.70;99.40;;;;;;5092127;28;20293;-47
2021/05/10 05:11:02;;;;;;;5.88;3.95;;;15.90;99.20;;;;;;5092329;28;20293;-51
2021/05/10 05:13:30;;;;;;;8.63;4.30;;;16.10;98.90;;;;;;5092001;28;20325;-47
2021/05/10 05:15:57;;;;;;;5.90;4.13;;;16.40;98.70;;;;;;5091933;28;20280;-48
2021/05/10 05:18:25;;;;;;;6.32;4.13;;;16.50;98.40;;;;;;5091978;28;20253;-47
2021/05/10 05:20:51;;;;;;;5.75;4.60;;;16.70;98.20;;;;;;5091815;28;20313;-48
2021/05/10 05:23:25;;;;;;;4.40;4.00;;;16.90;98.00;;;;;;5092560;28;20289;-47
2021/05/10 05:25:56;;;;;;;7.32;4.70;;;17.10;97.70;;;;;;5096306;28;20271;-45
2021/05/10 05:28:24;;;;;;;8.93;4.70;;;17.40;97.10;;;;;;5096178;28;20214;-44
2021/05/10 05:30:51;;;;;;;8.95;3.83;;;17.70;96.60;;;;;;5096105;28;20646;-45
2021/05/10 05:33:18;;;;;;;5.53;3.50;;;17.90;96.00;;;;;;5095988;28;20206;-43
2021/05/10 05:35:45;;;;;;;6.32;3.55;;;18.10;95.50;;;;;;5095794;28;20210;-44
2021/05/10 05:38:12;;;;;;;6.95;3.80;;;18.30;94.90;;;;;;5096139;28;20297;-44
2021/05/10 05:40:41;;;;;;;4.63;3.58;;;18.40;94.50;;;;;;5095927;28;20318;-45
2021/05/10 05:43:09;;;;;;;6.80;4.07;;;18.60;94.10;;;;;;5095628;28;20242;-50
2021/05/10 05:45:36;;;;;;;6.30;3.22;;;18.80;93.80;;;;;;5095701;28;20226;-48
2021/05/10 05:48:03;;;;;;;5.13;3.45;;;18.90;93.30;;;;;;5095623;28;20218;-46
2021/05/10 05:50:31;;;;;;;9.48;3.03;;;19.10;92.80;;;;;;5095413;28;20749;-49
2021/05/10 05:52:58;;;;;;;6.10;3.17;;;19.20;92.30;;;;;;5095688;28;20325;-48
2021/05/10 05:55:26;;;;;;;3.72;3.10;;;19.20;91.90;;;;;;5096012;28;20301;-46
2021/05/10 05:57:54;;;;;;;5.38;2.67;;;19.40;91.40;;;;;;5095757;28;20211;-45
2021/05/10 06:00:22;;;;;;;4.00;3.00;;;19.60;90.90;;;;;;5095347;28;20562;-46
2021/05/10 06:02:49;;;;;;;8.73;2.78;;;19.80;90.20;;;;;;5095285;28;20298;-45
2021/05/10 06:05:16;;;;;;;3.65;2.80;;;20.00;89.40;;;;;;5095220;28;20722;-45
2021/05/10 06:07:49;;;;;;;5.60;2.60;;;20.20;88.40;;;;;;5095439;28;20246;-44
2021/05/10 06:10:19;;;;;;;3.65;2.45;;;20.40;87.40;;;;;;5095186;28;20211;-47
2021/05/10 06:12:49;;;;;;;5.07;3.72;;;20.60;86.80;;;;;;5095531;28;20297;-48
2021/05/10 06:15:17;;;;;;;5.60;4.13;;;20.70;86.10;;;;;;5095249;28;20213;-47
2021/05/10 06:17:45;;;;;;;3.78;3.20;;;20.80;85.50;;;;;;5095380;28;20294;-49
2021/05/10 06:20:13;;;;;;;6.13;3.03;;;20.90;85.00;;;;;;5095185;28;20293;-48
2021/05/10 06:22:41;;;;;;;7.47;5.75;;;21.10;84.80;;;;;;5094954;28;20247;-46
2021/05/10 06:25:10;;;;;;;5.40;4.03;;;21.10;84.40;;;;;;5095056;28;20289;-54
2021/05/10 06:27:38;;;;;;;6.00;4.55;;;21.30;84.40;;;;;;5095019;28;20206;-44
2021/05/10 06:30:06;;;;;;;3.65;2.60;;;21.30;83.80;;;;;;5095160;28;20214;-46
2021/05/10 06:32:34;;;;;;;2.75;2.33;;;21.40;82.30;;;;;;5094962;28;20727;-47
2021/05/10 06:35:03;;;;;;;3.78;2.08;;;21.60;80.90;;;;;;5094810;28;20297;-47
2021/05/10 06:37:30;;;;;;;5.13;2.90;;;21.70;79.30;;;;;;5094761;28;20294;-48
2021/05/10 06:39:57;;;;;;;5.38;4.15;;;21.90;77.10;;;;;;5094771;28;20256;-46
2021/05/10 06:42:24;;;;;;;2.72;2.22;;;21.90;75.80;;;;;;5094473;28;20659;-46
2021/05/10 06:44:53;;;;;;;3.47;3.10;;;22.10;74.90;;;;;;5094824;28;20622;-47
2021/05/10 06:47:19;;;;;;;2.65;1.95;;;22.20;74.30;;;;;;5094630;28;20298;-45
2021/05/10 06:49:47;;;;;;;2.08;1.63;;;22.20;73.20;;;;;;5094687;28;20298;-51
2021/05/10 06:52:14;;;;;;;4.53;2.40;;;22.30;72.60;;;;;;5094533;28;20361;-48
2021/05/10 06:54:41;;;;;;;3.45;2.30;;;22.20;72.00;;;;;;5094332;28;20301;-52
2021/05/10 06:57:08;;;;;;;3.20;1.73;;;22.10;71.90;;;;;;5094490;28;20217;-50
2021/05/10 06:59:35;;;;;;;2.25;1.92;;;21.90;71.90;;;;;;5094579;28;20234;-47
2021/05/10 07:02:02;;;;;;;3.35;1.95;;;21.90;72.10;;;;;;5093925;28;20269;-52
2021/05/10 07:04:29;;;;;;;3.50;2.70;;;21.90;72.30;;;;;;5094258;28;20576;-53
2021/05/10 07:06:57;;;;;;;3.85;2.60;;;22.00;72.80;;;;;;5093748;28;20309;-52
2021/05/10 07:09:24;;;;;;;3.88;3.50;;;22.10;71.70;;;;;;5094092;28;20617;-51
2021/05/10 07:11:51;;;;;;;3.70;2.53;;;22.20;71.20;;;;;;5094252;28;20209;-50
2021/05/10 07:14:18;;;;;;;8.32;2.28;;;22.30;70.70;;;;;;5094136;28;20235;-50
2021/05/10 07:16:45;;;;;;;8.20;1.70;;;22.30;70.30;;;;;;5093850;28;20759;-53
2021/05/10 07:19:12;;;;;;;2.88;1.75;;;22.40;69.90;;;;;;5093868;28;20220;-50
2021/05/10 07:21:39;;;;;;;2.45;1.90;;;22.50;69.50;;;;;;5093612;28;20250;-51
2021/05/10 07:24:07;;;;;;;2.97;1.50;;;22.70;69.10;;;;;;5093463;28;20326;-50
2021/05/10 07:26:35;;;;;;;3.40;1.55;;;22.80;68.80;;;;;;5093817;28;20404;-50
2021/05/10 07:29:03;;;;;;;2.38;2.05;;;22.90;68.20;;;;;;5093828;28;20213;-53
2021/05/10 07:31:30;;;;;;;3.92;1.92;;;23.00;67.40;;;;;;5093669;28;20232;-49
2021/05/10 07:33:57;;;;;;;4.13;1.70;;;23.10;66.70;;;;;;5093608;28;20203;-48
2021/05/10 07:36:24;;;;;;;5.03;1.75;;;23.10;66.20;;;;;;5093456;28;20648;-47
2021/05/10 07:38:51;;;;;;;4.28;1.55;;;23.20;65.60;;;;;;5093641;28;20736;-46
2021/05/10 07:41:19;;;;;;;2.38;1.75;;;23.20;65.20;;;;;;5093526;28;20227;-51
2021/05/10 07:43:46;;;;;;;4.22;1.45;;;23.30;65.00;;;;;;5093389;28;20217;-49
2021/05/10 07:46:13;;;;;;;3.35;1.83;;;23.30;64.50;;;;;;5092759;28;20671;-45
2021/05/10 07:48:40;;;;;;;5.25;2.05;;;23.40;63.80;;;;;;5093270;28;20207;-47
2021/05/10 07:51:06;;;;;;;3.28;1.65;;;23.50;63.80;;;;;;5093211;28;20587;-45
2021/05/10 07:53:33;;;;;;;3.17;1.33;;;23.60;63.80;;;;;;5093406;28;20301;-51
2021/05/10 07:56:01;;;;;;;2.42;1.60;;;23.70;63.90;;;;;;5093192;28;20339;-52
2021/05/10 07:58:28;;;;;;;3.38;1.95;;;23.80;63.40;;;;;;5092921;28;20226;-47
2021/05/10 08:00:57;;;;;;;3.65;1.40;;;23.90;63.10;;;;;;5092846;28;20348;-52
2021/05/10 08:03:27;;;;;;;2.58;1.65;;;24.10;62.90;;;;;;5093159;28;20333;-48
2021/05/10 08:05:55;;;;;;;3.60;1.58;;;24.20;62.50;;;;;;5093045;28;20209;-49
2021/05/10 08:08:23;;;;;;;1.75;1.50;;;24.30;61.70;;;;;;5092923;28;20309;-51
2021/05/10 08:10:50;;;;;;;2.97;1.63;;;24.40;61.10;;;;;;5092657;28;20299;-50
2021/05/10 08:13:17;;;;;;;3.50;1.98;;;24.60;60.70;;;;;;5092759;28;20234;-53
2021/05/10 08:15:45;;;;;;;4.50;2.55;;;24.80;60.20;;;;;;5092633;28;20238;-52
2021/05/10 08:18:13;;;;;;;2.17;1.55;;;25.00;59.90;;;;;;5092335;28;20309;-46
2021/05/10 08:20:41;;;;;;;3.22;2.08;;;25.10;59.80;;;;;;5092226;28;20242;-46
2021/05/10 08:23:08;;;;;;;4.30;1.52;;;25.20;59.70;;;;;;5092208;28;20206;-49
2021/05/10 08:25:36;;;;;;;3.42;1.20;;;25.30;59.50;;;;;;5092418;28;20238;-50
2021/05/10 08:28:04;;;;;;;4.55;1.55;;;25.50;58.90;;;;;;5092338;28;20215;-52
2021/05/10 08:30:31;;;;;;;4.82;2.10;;;25.60;58.30;;;;;;5092272;28;20276;-45
2021/05/10 08:32:59;;;;;;;1.50;1.40;;;25.70;57.80;;;;;;5092166;28;20302;-50
2021/05/10 08:35:26;;;;;;;3.92;1.65;;;25.80;57.50;;;;;;5092601;28;20259;-46
2021/05/10 08:37:59;;;;;;;3.55;1.67;;;25.80;56.90;;;;;;5092233;28;20280;-53
2021/05/10 08:40:26;;;;;;;3.08;1.45;;;25.80;56.60;;;;;;5092211;28;20297;-51
2021/05/10 08:42:53;;;;;;;2.75;1.42;;;25.70;56.60;;;;;;5092078;28;20230;-49
2021/05/10 08:45:21;;;;;;;3.13;1.77;;;25.70;56.60;;;;;;5092011;28;20263;-53
2021/05/10 08:47:49;;;;;;;3.05;1.45;;;25.90;56.60;;;;;;5092485;28;20217;-45
2021/05/10 08:50:17;;;;;;;4.07;1.70;;;26.10;56.50;;;;;;5092409;28;20207;-51
2021/05/10 08:52:44;;;;;;;3.30;2.50;;;26.20;56.40;;;;;;5092017;28;20290;-48
2021/05/10 08:55:14;;;;;;;3.25;2.17;;;26.20;56.50;;;;;;5092165;28;20691;-52
2021/05/10 08:57:41;;;;;;;1.95;1.35;;;26.30;56.50;;;;;;5091146;28;20644;-48
2021/05/10 09:00:12;;;;;;;2.15;1.35;;;26.30;56.30;;;;;;5091674;28;20595;-49
2021/05/10 09:02:39;;;;;;;5.88;1.73;;;26.30;56.20;;;;;;5091700;28;20261;-48
2021/05/10 09:05:11;;;;;;;4.50;1.73;;;26.30;56.30;;;;;;5091970;28;20260;-48
2021/05/10 09:07:40;;;;;;;2.15;1.50;;;26.20;55.90;;;;;;5091637;28;20250;-49
2021/05/10 09:10:10;;;;;;;4.13;1.48;;;26.20;55.90;;;;;;5091496;28;20695;-49
2021/05/10 09:12:47;;;;;;;3.75;1.60;;;26.10;55.80;;;;;;5092250;28;20687;-49
2021/05/10 09:15:22;;;;;;;4.18;1.58;;;26.00;55.80;;;;;;5091635;28;20212;-50
2021/05/10 09:17:51;;;;;;;3.47;1.58;;;26.00;55.20;;;;;;5091869;28;20202;-51
2021/05/10 09:20:21;;;;;;;2.35;1.35;;;26.00;55.40;;;;;;5091763;28;20245;-48
2021/05/10 09:22:51;;;;;;;2.05;1.23;;;26.00;55.10;;;;;;5091654;28;20222;-47
2021/05/10 09:25:19;;;;;;;2.35;1.30;;;26.00;54.60;;;;;;5091966;28;20329;-44
2021/05/10 09:27:47;;;;;;;2.58;1.77;;;26.10;54.10;;;;;;5091834;28;20215;-45
2021/05/10 09:30:19;;;;;;;4.95;2.05;;;26.10;54.00;;;;;;5091910;28;20305;-47
2021/05/10 09:32:51;;;;;;;4.65;1.33;;;26.20;53.50;;;;;;5091338;28;20261;-50
2021/05/10 09:35:22;;;;;;;3.50;1.52;;;26.30;53.00;;;;;;5091745;28;20214;-48
2021/05/10 09:37:58;;;;;;;2.15;1.48;;;26.40;52.50;;;;;;5091832;28;20293;-50
2021/05/10 09:40:28;;;;;;;3.35;1.30;;;26.40;51.90;;;;;;5092125;28;20237;-50
2021/05/10 09:43:12;;;;;;;1.38;1.27;;;26.40;51.80;;;;;;5091715;28;20198;-48
2021/05/10 09:45:46;;;;;;;2.88;1.40;;;26.50;51.70;;;;;;5091628;28;20203;-45
2021/05/10 09:48:23;;;;;;;7.28;2.80;;;26.60;51.40;;;;;;5091936;28;20206;-45
2021/05/10 09:50:52;;;;;;;2.92;2.10;;;26.70;51.20;;;;;;5092040;28;20284;-47
2021/05/10 09:53:27;;;;;;;2.75;1.08;;;26.80;50.80;;;;;;5091837;28;20230;-44
2021/05/10 09:55:56;;;;;;;3.22;1.20;;;26.90;49.90;;;;;;5091659;28;20242;-48
2021/05/10 09:58:25;;;;;;;7.13;2.35;;;26.90;49.80;;;;;;5091420;28;20685;-44
2021/05/10 10:00:56;;;;;;;3.00;1.38;;;27.00;49.50;;;;;;5091808;28;20231;-43
2021/05/10 10:03:27;;;;;;;3.60;1.35;;;27.00;48.90;;;;;;5091509;28;20302;-47
2021/05/10 10:05:55;;;;;;;4.22;1.85;;;27.10;48.60;;;;;;5091690;28;20305;-45
2021/05/10 10:08:24;;;;;;;5.90;1.73;;;27.20;48.50;;;;;;5091394;28;20242;-44
2021/05/10 10:10:51;;;;;;;3.08;1.58;;;27.30;48.30;;;;;;5094855;28;20206;-47
2021/05/10 10:13:19;;;;;;;3.95;1.35;;;27.30;47.70;;;;;;5095414;28;20242;-43
2021/05/10 10:15:47;;;;;;;1.98;1.17;;;27.30;47.40;;;;;;5095027;28;20250;-45
2021/05/10 10:18:19;;;;;;;4.68;1.45;;;27.30;47.10;;;;;;5095115;28;20245;-45
2021/05/10 10:20:48;;;;;;;3.58;1.50;;;27.30;47.00;;;;;;5095020;28;20554;-46
2021/05/10 10:23:17;;;;;;;1.67;1.10;;;27.30;46.80;;;;;;5094966;28;20214;-43
2021/05/10 10:25:46;;;;;;;2.13;1.10;;;27.30;46.80;;;;;;5095104;28;20216;-43
2021/05/10 10:28:18;;;;;;;1.77;1.15;;;27.30;46.50;;;;;;5095075;28;20353;-44
2021/05/10 10:30:48;;;;;;;1.75;1.13;;;27.50;46.30;;;;;;5094860;28;20278;-43
2021/05/10 10:33:25;;;;;;;4.18;1.30;;;27.60;45.80;;;;;;5089355;28;20575;-49
2021/05/10 10:35:53;;;;;;;3.67;1.13;;;27.70;45.70;;;;;;5074424;28;20306;-43
2021/05/10 10:38:32;;;;;;;2.55;1.20;;;27.80;45.60;;;;;;5074581;28;20242;-42
2021/05/10 10:41:20;;;;;;;2.00;1.33;;;27.90;45.20;;;;;;5074415;28;20246;-42
2021/05/10 10:43:48;;;;;;;2.42;1.23;;;27.90;45.10;;;;;;5074091;28;20633;-42
2021/05/10 10:46:33;;;;;;;2.83;1.23;;;27.90;45.00;;;;;;5074269;28;20310;-42
2021/05/10 10:49:28;;;;;;;1.80;1.00;;;28.00;45.00;;;;;;5074325;28;20215;-42
2021/05/10 10:51:56;;;;;;;1.20;1.10;;;28.10;44.30;;;;;;5074289;28;20302;-43
2021/05/10 10:54:27;;;;;;;3.53;1.67;;;28.10;44.50;;;;;;5074002;28;20290;-43
2021/05/10 10:56:58;;;;;;;1.65;1.10;;;28.20;44.20;;;;;;5074249;28;20303;-42
2021/05/10 10:59:37;;;;;;;3.42;1.25;;;28.30;44.00;;;;;;5074035;28;20629;-44
2021/05/10 11:02:17;;;;;;;3.17;1.08;;;28.40;43.80;;;;;;5074112;28;20227;-42
2021/05/10 11:04:46;;;;;;;7.60;1.80;;;28.50;43.80;;;;;;5073840;28;20691;-42
2021/05/10 11:07:13;;;;;;;1.80;0.85;;;28.50;43.90;;;;;;5074024;28;20243;-44
2021/05/10 11:09:54;;;;;;;1.92;1.30;;;28.60;43.70;;;;;;5073985;28;20646;-42
2021/05/10 11:12:50;;;;;;;2.63;1.45;;;28.70;43.40;;;;;;5073598;28;20246;-42
2021/05/10 11:15:46;;;;;;;3.85;1.65;;;28.70;42.70;;;;;;5073447;28;20227;-43
2021/05/10 11:18:33;;;;;;;2.33;1.23;;;28.70;43.00;;;;;;5073782;28;20215;-45
2021/05/10 11:21:00;;;;;;;5.85;2.72;;;28.70;43.00;;;;;;5072579;28;20723;-44
2021/05/10 11:23:35;;;;;;;3.97;1.42;;;28.80;43.30;;;;;;5073048;28;20669;-42
2021/05/10 11:26:04;;;;;;;2.42;1.20;;;28.90;43.20;;;;;;5073746;28;20607;-47
2021/05/10 11:28:46;;;;;;;2.63;0.93;;;29.00;43.10;;;;;;5073483;28;20239;-46
2021/05/10 11:31:30;;;;;;;3.33;2.33;;;29.20;42.50;;;;;;5073691;28;20621;-43
2021/05/10 11:34:06;;;;;;;3.78;2.00;;;29.30;42.60;;;;;;5073102;28;20211;-44
2021/05/10 11:36:34;;;;;;;2.97;1.10;;;29.30;42.30;;;;;;5073374;28;20261;-46
2021/05/10 11:39:04;;;;;;;2.10;1.48;;;29.30;42.40;;;;;;5073256;28;20229;-45
2021/05/10 11:41:33;;;;;;;4.82;1.90;;;29.40;42.40;;;;;;5073085;28;20265;-45
2021/05/10 11:44:03;;;;;;;6.22;1.95;;;29.50;42.40;;;;;;5073349;28;20243;-42
2021/05/10 11:46:35;;;;;;;7.70;5.55;;;29.80;42.40;;;;;;5084541;28;20302;-45
2021/05/10 11:49:03;;;;;;;4.55;2.17;;;30.00;42.20;;;;;;5093430;28;20214;-44
2021/05/10 11:51:33;;;;;;;5.63;1.67;;;30.10;42.40;;;;;;5093101;28;20259;-43
2021/05/10 11:54:03;;;;;;;3.20;2.05;;;30.10;42.70;;;;;;5093025;28;20249;-45
2021/05/10 11:56:33;;;;;;;8.25;2.97;;;30.00;42.70;;;;;;5093229;28;20317;-43
2021/05/10 11:59:09;;;;;;;3.10;1.80;;;30.10;42.60;;;;;;5093048;28;20203;-43
2021/05/10 12:01:38;;;;;;;4.05;1.27;;;30.30;42.60;;;;;;5093131;28;20404;-42
2021/05/10 12:04:20;;;;;;;2.95;1.75;;;30.50;42.50;;;;;;5092817;28;20221;-44
2021/05/10 12:06:48;;;;;;;2.05;1.30;;;30.60;42.40;;;;;;5092894;28;20691;-45
2021/05/10 12:09:35;;;;;;;6.28;1.95;;;30.60;42.60;;;;;;5093191;28;20310;-45
2021/05/10 12:12:03;;;;;;;4.78;3.50;;;30.80;42.10;;;;;;5093179;28;20225;-42
2021/05/10 12:14:31;;;;;;;4.20;1.50;;;30.80;42.50;;;;;;5093157;28;20213;-46
2021/05/10 12:17:07;;;;;;;3.22;1.65;;;30.60;42.40;;;;;;5092646;28;20245;-41
2021/05/10 12:19:48;;;;;;;6.90;2.97;;;30.50;42.60;;;;;;5092691;28;20222;-43
2021/05/10 12:22:16;;;;;;;5.75;1.60;;;30.40;43.40;;;;;;5092897;28;20260;-46
2021/05/10 12:25:01;;;;;;;3.58;1.40;;;30.40;42.90;;;;;;5092522;28;20329;-42
2021/05/10 12:27:32;;;;;;;4.88;1.83;;;30.50;42.30;;;;;;5092614;28;20216;-42
2021/05/10 12:30:00;;;;;;;2.88;1.35;;;30.50;42.50;;;;;;5092455;28;20764;-43
2021/05/10 12:32:27;;;;;;;2.50;1.38;;;30.60;42.40;;;;;;5092206;28;20293;-43
2021/05/10 12:34:54;;;;;;;3.03;1.23;;;30.50;42.20;;;;;;5092568;28;20203;-42
2021/05/10 12:37:21;;;;;;;2.42;1.35;;;30.30;42.30;;;;;;5092500;28;20373;-44
2021/05/10 12:40:05;;;;;;;2.55;1.40;;;30.10;42.80;;;;;;5092604;28;20669;-42
2021/05/10 12:42:32;;;;;;;6.43;1.70;;;29.90;42.80;;;;;;5092404;28;20332;-43
2021/05/10 12:45:02;;;;;;;3.75;1.63;;;29.80;43.30;;;;;;5092483;28;20241;-42
2021/05/10 12:47:48;;;;;;;2.53;1.50;;;29.70;43.30;;;;;;5092591;28;20233;-42
2021/05/10 12:50:37;;;;;;;3.55;1.70;;;29.60;43.20;;;;;;5092525;28;20293;-42
2021/05/10 12:53:05;;;;;;;4.95;2.25;;;29.50;43.30;;;;;;5092175;28;20198;-42
2021/05/10 12:55:34;;;;;;;3.25;1.60;;;29.40;43.30;;;;;;5092428;28;20210;-43
2021/05/10 12:58:17;;;;;;;6.63;1.90;;;29.30;43.40;;;;;;5092113;28;20206;-43